Time;durP1;ratioP1;P1;durP2;ratioP2;P2;SDS_P1;SDS_P2;PMS_P1;PMS_P2;Temp;Humidity;BMP_temperature;BMP_pressure;BME280_temperature;BME280_humidity;BME280_pressure;Samples;Min_cycle;Max_cycle;Signal;HPM_P1;HPM_P2
2023/01/25 00:02:11;;;;;;;18.67;11.90;;;2.90;99.90;;;;;;5075235;28;21025;-70
2023/01/25 00:04:38;;;;;;;24.97;15.60;;;3.00;99.90;;;;;;5075346;28;20986;-70
2023/01/25 00:07:05;;;;;;;19.63;12.30;;;3.00;99.90;;;;;;5075363;28;20501;-70
2023/01/25 00:09:32;;;;;;;17.60;11.80;;;3.00;99.90;;;;;;5076550;28;20504;-69
2023/01/25 00:12:00;;;;;;;18.70;11.60;;;3.10;99.90;;;;;;5075962;28;20549;-69
2023/01/25 00:14:27;;;;;;;19.27;11.70;;;3.10;99.90;;;;;;5076234;28;20565;-70
2023/01/25 00:16:54;;;;;;;20.77;13.07;;;3.00;99.90;;;;;;5075209;28;20540;-70
2023/01/25 00:19:22;;;;;;;20.40;12.63;;;3.00;99.90;;;;;;5075907;28;20461;-70
2023/01/25 00:21:49;;;;;;;22.70;12.57;;;3.00;99.90;;;;;;5074936;28;20461;-70
2023/01/25 00:24:16;;;;;;;17.53;11.87;;;3.00;99.90;;;;;;5075663;28;20468;-70
2023/01/25 00:26:43;;;;;;;18.07;11.53;;;3.00;99.90;;;;;;5075087;28;20462;-70
2023/01/25 00:29:13;;;;;;;19.77;11.97;;;2.90;99.90;;;;;;5074726;28;20454;-68
2023/01/25 00:31:57;;;;;;;15.37;11.47;;;2.90;99.90;;;;;;5075097;28;20472;-70
2023/01/25 00:34:46;;;;;;;16.50;11.07;;;2.90;99.90;;;;;;5075110;28;20816;-70
2023/01/25 00:37:20;;;;;;;17.07;10.77;;;2.90;99.90;;;;;;5074287;28;20494;-69
2023/01/25 00:39:47;;;;;;;16.37;10.73;;;3.00;99.90;;;;;;5078734;28;20438;-69
2023/01/25 00:42:16;;;;;;;19.43;11.50;;;3.00;99.90;;;;;;5078631;28;20485;-69
2023/01/25 00:44:44;;;;;;;18.43;11.73;;;3.00;99.90;;;;;;5078814;28;20514;-70
2023/01/25 00:47:11;;;;;;;16.53;11.57;;;3.00;99.90;;;;;;5078842;28;20446;-70
2023/01/25 00:49:42;;;;;;;18.33;12.10;;;2.90;99.90;;;;;;5078914;28;20574;-70
2023/01/25 00:52:10;;;;;;;19.13;11.97;;;2.90;99.90;;;;;;5079343;28;20452;-70
2023/01/25 00:54:37;;;;;;;15.73;11.33;;;3.00;99.90;;;;;;5079971;28;20837;-71
2023/01/25 00:57:05;;;;;;;18.30;12.33;;;3.00;99.90;;;;;;5079865;28;20458;-70
2023/01/25 00:59:33;;;;;;;24.00;11.93;;;3.00;99.90;;;;;;5078826;28;20982;-69
2023/01/25 01:02:01;;;;;;;18.33;12.53;;;3.00;99.90;;;;;;5078619;28;20464;-69
2023/01/25 01:04:29;;;;;;;17.40;12.20;;;3.10;99.90;;;;;;5078637;28;20534;-70
2023/01/25 01:06:56;;;;;;;21.50;12.63;;;3.10;99.90;;;;;;5078391;28;20540;-70
2023/01/25 01:09:24;;;;;;;17.07;11.63;;;3.10;99.90;;;;;;5078861;28;20490;-69
2023/01/25 01:11:50;;;;;;;19.40;12.80;;;3.10;99.90;;;;;;5079967;28;20560;-70
2023/01/25 01:14:17;;;;;;;16.37;11.57;;;3.10;99.90;;;;;;5079528;28;20857;-69
2023/01/25 01:16:45;;;;;;;19.53;11.93;;;3.20;99.90;;;;;;5079460;28;20464;-70
2023/01/25 01:19:15;;;;;;;29.20;12.60;;;3.20;99.90;;;;;;5079089;28;20477;-69
2023/01/25 01:21:42;;;;;;;20.47;13.30;;;3.10;99.90;;;;;;5078838;28;20533;-70
2023/01/25 01:24:10;;;;;;;17.63;11.47;;;3.10;99.90;;;;;;5078185;28;20468;-70
2023/01/25 01:26:38;;;;;;;16.00;12.37;;;3.10;99.90;;;;;;5077794;28;20540;-69
2023/01/25 01:29:05;;;;;;;16.83;11.30;;;3.10;99.90;;;;;;5077985;28;20879;-70
2023/01/25 01:31:32;;;;;;;15.53;11.30;;;3.10;99.90;;;;;;5078508;28;20568;-70
2023/01/25 01:33:59;;;;;;;20.50;13.60;;;3.10;99.90;;;;;;5078335;28;20811;-70
2023/01/25 01:36:29;;;;;;;17.27;12.03;;;3.10;99.90;;;;;;5078543;28;20462;-69
2023/01/25 01:38:58;;;;;;;19.80;12.10;;;3.10;99.90;;;;;;5078691;28;20480;-70
2023/01/25 01:41:25;;;;;;;18.83;11.80;;;3.20;99.90;;;;;;5077888;28;20462;-69
2023/01/25 01:43:53;;;;;;;19.10;12.20;;;3.20;99.90;;;;;;5078691;28;20504;-69
2023/01/25 01:46:28;;;;;;;19.30;11.80;;;3.20;99.90;;;;;;5078640;28;20454;-70
2023/01/25 01:48:59;;;;;;;24.63;13.50;;;3.20;99.90;;;;;;5078416;28;20529;-70
2023/01/25 01:51:36;;;;;;;17.50;12.60;;;3.20;99.90;;;;;;5079285;28;20477;-70
2023/01/25 01:54:08;;;;;;;18.87;12.30;;;3.20;99.90;;;;;;5079508;28;20481;-69
2023/01/25 01:56:41;;;;;;;15.57;12.20;;;3.20;99.90;;;;;;5079173;28;20521;-70
2023/01/25 01:59:10;;;;;;;23.23;11.97;;;3.10;99.90;;;;;;5079764;28;20450;-69
2023/01/25 02:01:37;;;;;;;15.77;11.83;;;3.20;99.90;;;;;;5079228;28;20477;-69
2023/01/25 02:04:06;;;;;;;17.10;12.80;;;3.20;99.90;;;;;;5079850;28;20482;-70
2023/01/25 02:06:42;;;;;;;18.10;12.60;;;3.20;99.90;;;;;;5079635;28;20545;-69
2023/01/25 02:09:10;;;;;;;20.40;12.97;;;3.20;99.90;;;;;;5079793;28;20438;-70
2023/01/25 02:11:38;;;;;;;17.73;12.47;;;3.20;99.90;;;;;;5078689;28;20478;-70
2023/01/25 02:14:06;;;;;;;23.37;11.83;;;3.10;99.90;;;;;;5078778;28;20458;-68
2023/01/25 02:16:33;;;;;;;17.73;12.77;;;3.10;99.90;;;;;;5078184;28;20454;-69
2023/01/25 02:19:02;;;;;;;17.17;11.87;;;3.10;99.90;;;;;;5077930;28;20919;-69
2023/01/25 02:21:38;;;;;;;18.43;12.13;;;3.20;99.90;;;;;;5077885;28;20533;-69
2023/01/25 02:24:11;;;;;;;21.40;13.17;;;3.10;99.90;;;;;;5077632;28;20529;-69
2023/01/25 02:26:39;;;;;;;20.73;13.60;;;3.20;99.90;;;;;;5078048;28;20442;-70
2023/01/25 02:29:08;;;;;;;15.60;12.17;;;3.20;99.90;;;;;;5077497;28;20522;-69
2023/01/25 02:31:35;;;;;;;17.07;11.97;;;3.20;99.90;;;;;;5078032;28;20478;-69
2023/01/25 02:34:01;;;;;;;18.33;12.60;;;3.10;99.90;;;;;;5077611;28;20741;-69
2023/01/25 02:36:30;;;;;;;21.00;12.20;;;3.20;99.90;;;;;;5078071;28;20458;-71
2023/01/25 02:39:01;;;;;;;18.43;13.23;;;3.20;99.90;;;;;;5077715;28;20508;-69
2023/01/25 02:41:32;;;;;;;22.93;13.73;;;3.20;99.90;;;;;;5078118;28;20451;-70
2023/01/25 02:44:01;;;;;;;19.87;14.00;;;3.20;99.90;;;;;;5077673;28;20485;-70
2023/01/25 02:46:30;;;;;;;19.90;12.30;;;3.20;99.90;;;;;;5077353;28;20470;-70
2023/01/25 02:48:59;;;;;;;22.63;13.77;;;3.20;99.90;;;;;;5077185;28;20454;-69
2023/01/25 02:51:28;;;;;;;19.70;13.00;;;3.20;99.90;;;;;;5078144;28;20585;-69
2023/01/25 02:53:55;;;;;;;18.17;12.80;;;3.20;99.90;;;;;;5078375;28;20465;-68
2023/01/25 02:56:22;;;;;;;19.37;12.53;;;3.20;99.90;;;;;;5078423;28;20827;-71
2023/01/25 02:58:49;;;;;;;22.90;14.23;;;3.20;99.90;;;;;;5077437;28;20851;-70
2023/01/25 03:01:18;;;;;;;20.40;14.50;;;3.30;99.90;;;;;;5078251;28;20454;-68
2023/01/25 03:03:45;;;;;;;18.23;13.80;;;3.30;99.90;;;;;;5078682;28;20460;-69
2023/01/25 03:06:12;;;;;;;25.53;13.77;;;3.20;99.90;;;;;;5078879;28;20458;-70
2023/01/25 03:08:39;;;;;;;22.07;14.67;;;3.20;99.90;;;;;;5078024;28;20537;-68
2023/01/25 03:11:07;;;;;;;22.33;14.50;;;3.20;99.90;;;;;;5078590;28;20495;-69
2023/01/25 03:13:38;;;;;;;19.10;13.93;;;3.20;99.90;;;;;;5078369;28;20541;-70
2023/01/25 03:16:07;;;;;;;20.33;13.90;;;3.20;99.90;;;;;;5078042;28;20538;-70
2023/01/25 03:18:36;;;;;;;19.83;13.03;;;3.20;99.90;;;;;;5077884;28;20865;-70
2023/01/25 03:21:07;;;;;;;18.23;13.20;;;3.20;99.90;;;;;;5078150;28;20518;-69
2023/01/25 03:23:34;;;;;;;25.57;13.70;;;3.10;99.90;;;;;;5076933;28;20497;-69
2023/01/25 03:26:07;;;;;;;22.20;13.70;;;3.20;99.90;;;;;;5077389;28;20569;-70
2023/01/25 03:28:33;;;;;;;22.33;15.33;;;3.20;99.90;;;;;;5077175;28;20545;-69
2023/01/25 03:31:00;;;;;;;19.17;13.60;;;3.20;99.90;;;;;;5076943;28;20488;-70
2023/01/25 03:33:27;;;;;;;21.10;15.00;;;3.20;99.90;;;;;;5076680;28;20530;-69
2023/01/25 03:35:56;;;;;;;24.33;14.37;;;3.30;99.90;;;;;;5077128;28;20466;-69
2023/01/25 03:38:23;;;;;;;24.07;13.90;;;3.30;99.90;;;;;;5076935;28;20518;-69
2023/01/25 03:40:50;;;;;;;21.60;14.37;;;3.30;99.90;;;;;;5077691;28;20537;-71
2023/01/25 03:43:17;;;;;;;23.97;14.10;;;3.30;99.90;;;;;;5078198;28;20584;-70
2023/01/25 03:45:44;;;;;;;23.47;15.03;;;3.30;99.90;;;;;;5078468;28;20470;-70
2023/01/25 03:48:11;;;;;;;19.93;14.23;;;3.30;99.90;;;;;;5077947;28;20464;-69
2023/01/25 03:50:37;;;;;;;26.10;15.93;;;3.20;99.90;;;;;;5077749;28;20487;-70
2023/01/25 03:53:28;;;;;;;21.63;15.17;;;3.20;99.90;;;;;;5078383;28;20943;-70
2023/01/25 03:55:57;;;;;;;19.57;13.60;;;3.30;99.90;;;;;;5077581;28;20434;-70
2023/01/25 03:58:24;;;;;;;22.63;15.50;;;3.30;99.90;;;;;;5078308;28;20557;-70
2023/01/25 04:00:54;;;;;;;25.30;16.10;;;3.30;99.90;;;;;;5077886;28;20457;-69
2023/01/25 04:03:21;;;;;;;20.03;13.43;;;3.30;99.90;;;;;;5078163;28;20434;-70
2023/01/25 04:05:48;;;;;;;21.30;13.80;;;3.30;99.90;;;;;;5076494;28;20537;-69
2023/01/25 04:08:15;;;;;;;21.50;13.30;;;3.30;99.90;;;;;;5077079;28;20449;-69
2023/01/25 04:10:44;;;;;;;30.57;16.80;;;3.30;99.90;;;;;;5076168;28;21004;-70
2023/01/25 04:13:11;;;;;;;25.40;14.77;;;3.40;99.90;;;;;;5078322;28;20458;-68
2023/01/25 04:15:38;;;;;;;26.03;15.60;;;3.40;99.90;;;;;;5077639;28;20468;-69
2023/01/25 04:18:05;;;;;;;19.07;13.30;;;3.40;99.90;;;;;;5077289;28;20458;-69
2023/01/25 04:20:31;;;;;;;22.90;14.70;;;3.40;99.90;;;;;;5076527;28;20836;-69
2023/01/25 04:22:58;;;;;;;24.17;16.07;;;3.40;99.90;;;;;;5076382;28;20537;-68
2023/01/25 04:25:25;;;;;;;21.93;14.60;;;3.40;99.90;;;;;;5077399;28;20541;-69
2023/01/25 04:27:53;;;;;;;27.80;17.50;;;3.40;99.90;;;;;;5076045;28;20462;-70
2023/01/25 04:30:20;;;;;;;21.57;14.10;;;3.50;99.90;;;;;;5076580;28;20454;-70
2023/01/25 04:32:47;;;;;;;25.10;14.40;;;3.40;99.90;;;;;;5076893;28;20464;-70
2023/01/25 04:35:14;;;;;;;21.50;15.70;;;3.40;99.90;;;;;;5077263;28;20464;-71
2023/01/25 04:37:41;;;;;;;21.80;15.10;;;3.40;99.90;;;;;;5076839;28;20545;-70
2023/01/25 04:40:10;;;;;;;22.33;14.13;;;3.40;99.90;;;;;;5077092;28;20854;-70
2023/01/25 04:42:36;;;;;;;26.40;16.70;;;3.40;99.90;;;;;;5075219;28;20500;-69
2023/01/25 04:45:06;;;;;;;23.27;15.13;;;3.30;99.90;;;;;;5075626;28;20514;-69
2023/01/25 04:47:32;;;;;;;24.80;16.63;;;3.30;99.90;;;;;;5075424;28;20489;-70
2023/01/25 04:49:59;;;;;;;27.77;17.97;;;3.30;99.90;;;;;;5075906;28;20454;-69
2023/01/25 04:52:26;;;;;;;26.87;16.83;;;3.30;99.90;;;;;;5075518;28;20503;-70
2023/01/25 04:54:53;;;;;;;28.93;17.57;;;3.30;99.90;;;;;;5075456;28;20991;-70
2023/01/25 04:57:20;;;;;;;26.67;17.53;;;3.30;99.90;;;;;;5075236;28;20540;-69
2023/01/25 04:59:47;;;;;;;28.70;16.90;;;3.30;99.90;;;;;;5075208;28;21021;-70
2023/01/25 05:02:15;;;;;;;27.33;17.23;;;3.30;99.90;;;;;;5075525;28;20999;-70
2023/01/25 05:04:42;;;;;;;26.53;18.50;;;3.30;99.90;;;;;;5075713;28;20464;-69
2023/01/25 05:07:08;;;;;;;26.00;15.77;;;3.30;99.90;;;;;;5075436;28;20494;-70
2023/01/25 05:09:35;;;;;;;28.53;17.50;;;3.40;99.90;;;;;;5075632;28;20530;-69
2023/01/25 05:12:02;;;;;;;28.23;18.27;;;3.40;99.90;;;;;;5075336;28;20478;-70
2023/01/25 05:14:29;;;;;;;25.73;16.73;;;3.40;99.90;;;;;;5075440;28;20458;-69
2023/01/25 05:16:56;;;;;;;25.77;17.80;;;3.40;99.90;;;;;;5074974;28;20464;-69
2023/01/25 05:19:24;;;;;;;34.80;18.73;;;3.40;99.90;;;;;;5075197;28;20454;-68
2023/01/25 05:22:00;;;;;;;27.33;17.53;;;3.50;99.90;;;;;;5074724;28;20541;-70
2023/01/25 05:24:28;;;;;;;27.13;16.70;;;3.50;99.90;;;;;;5079052;28;20438;-70
2023/01/25 05:27:00;;;;;;;25.83;16.33;;;3.50;99.90;;;;;;5079032;28;20544;-69
2023/01/25 05:29:27;;;;;;;20.53;13.03;;;3.50;99.90;;;;;;5079511;28;20500;-68
2023/01/25 05:31:54;;;;;;;16.77;12.37;;;3.50;99.90;;;;;;5078235;28;20530;-69
2023/01/25 05:34:21;;;;;;;16.43;11.80;;;3.40;99.90;;;;;;5080118;28;20447;-69
2023/01/25 05:36:50;;;;;;;18.90;13.07;;;3.30;99.90;;;;;;5078628;28;21033;-69
2023/01/25 05:39:16;;;;;;;17.33;12.10;;;3.30;99.90;;;;;;5079140;28;20553;-70
2023/01/25 05:41:44;;;;;;;15.80;11.47;;;3.30;99.90;;;;;;5080019;28;20461;-68
2023/01/25 05:44:11;;;;;;;19.93;12.23;;;3.30;99.90;;;;;;5080364;28;21060;-69
2023/01/25 05:46:37;;;;;;;17.20;12.60;;;3.20;99.90;;;;;;5080814;28;20457;-69
2023/01/25 05:49:04;;;;;;;18.60;11.97;;;3.20;99.90;;;;;;5079838;28;20550;-70
2023/01/25 05:51:31;;;;;;;17.27;11.93;;;3.10;99.90;;;;;;5080253;28;20513;-69
2023/01/25 05:53:59;;;;;;;22.60;13.13;;;3.10;99.90;;;;;;5079394;28;20464;-70
2023/01/25 05:56:26;;;;;;;18.47;12.67;;;3.10;99.90;;;;;;5079849;28;20490;-69
2023/01/25 05:58:53;;;;;;;15.60;10.93;;;3.10;99.90;;;;;;5080006;28;20454;-69
2023/01/25 06:01:20;;;;;;;13.37;10.27;;;3.10;99.90;;;;;;5078973;28;20450;-69
2023/01/25 06:03:48;;;;;;;19.63;12.67;;;3.10;99.90;;;;;;5079000;28;20462;-71
2023/01/25 06:06:14;;;;;;;17.40;11.40;;;3.20;99.90;;;;;;5079004;28;20469;-68
2023/01/25 06:08:41;;;;;;;18.80;11.90;;;3.30;99.90;;;;;;5078731;28;20517;-69
2023/01/25 06:11:12;;;;;;;17.83;13.77;;;3.20;99.90;;;;;;5079071;28;20550;-69
2023/01/25 06:13:39;;;;;;;17.67;12.87;;;3.20;99.90;;;;;;5079031;28;20453;-70
2023/01/25 06:16:07;;;;;;;19.47;13.10;;;3.20;99.90;;;;;;5078261;28;21017;-70
2023/01/25 06:18:34;;;;;;;18.30;13.10;;;3.20;99.90;;;;;;5079318;28;20547;-70
2023/01/25 06:21:02;;;;;;;20.80;13.70;;;3.20;99.90;;;;;;5079074;28;20458;-70
2023/01/25 06:23:29;;;;;;;19.33;13.10;;;3.30;99.90;;;;;;5078390;28;20801;-69
2023/01/25 06:25:58;;;;;;;19.73;13.17;;;3.30;99.90;;;;;;5078350;28;20537;-69
2023/01/25 06:28:29;;;;;;;14.57;12.10;;;3.30;99.90;;;;;;5078807;28;20476;-70
2023/01/25 06:30:56;;;;;;;16.97;10.93;;;3.20;99.90;;;;;;5078991;28;20533;-70
2023/01/25 06:33:22;;;;;;;17.23;12.33;;;3.20;99.90;;;;;;5080064;28;20554;-70
2023/01/25 06:35:51;;;;;;;17.30;10.00;;;3.20;99.90;;;;;;5079581;28;20558;-70
2023/01/25 06:38:18;;;;;;;18.07;10.87;;;3.20;99.90;;;;;;5079075;28;20489;-70
2023/01/25 06:40:44;;;;;;;14.30;10.33;;;3.10;99.90;;;;;;5079235;28;20537;-70
2023/01/25 06:43:12;;;;;;;19.60;12.50;;;3.10;99.90;;;;;;5079991;28;20561;-71
2023/01/25 06:45:40;;;;;;;14.50;10.37;;;3.00;99.90;;;;;;5079576;28;20570;-70
2023/01/25 06:48:07;;;;;;;15.43;12.50;;;3.00;99.90;;;;;;5079433;28;20542;-71
2023/01/25 06:50:34;;;;;;;16.60;11.43;;;3.00;99.90;;;;;;5079233;28;20541;-68
2023/01/25 06:53:01;;;;;;;13.00;9.90;;;2.90;99.90;;;;;;5079071;28;20588;-70
2023/01/25 06:55:30;;;;;;;12.47;9.37;;;2.90;99.90;;;;;;5079303;28;20468;-71
2023/01/25 06:58:00;;;;;;;12.50;9.90;;;2.90;99.90;;;;;;5079021;28;20482;-70
2023/01/25 07:00:27;;;;;;;15.37;9.97;;;2.80;99.90;;;;;;5077564;28;20442;-69
2023/01/25 07:02:55;;;;;;;14.97;11.37;;;2.80;99.90;;;;;;5077513;28;20541;-69
2023/01/25 07:05:22;;;;;;;15.60;11.20;;;2.90;99.90;;;;;;5078106;28;20827;-68
2023/01/25 07:07:49;;;;;;;17.57;11.40;;;2.90;99.90;;;;;;5077249;28;20454;-70
2023/01/25 07:10:16;;;;;;;20.17;13.70;;;3.00;99.90;;;;;;5077386;28;20458;-70
2023/01/25 07:12:43;;;;;;;17.03;12.03;;;3.00;99.90;;;;;;5079115;28;20871;-69
2023/01/25 07:15:10;;;;;;;18.80;13.67;;;3.00;99.90;;;;;;5078403;28;20454;-69
2023/01/25 07:17:37;;;;;;;18.27;12.77;;;2.90;99.90;;;;;;5078359;28;20541;-70
2023/01/25 07:20:06;;;;;;;23.63;13.50;;;2.90;99.90;;;;;;5078383;28;20958;-70
2023/01/25 07:22:34;;;;;;;21.80;14.43;;;2.80;99.90;;;;;;5079489;28;20533;-69
2023/01/25 07:25:01;;;;;;;21.10;13.60;;;2.80;99.90;;;;;;5075466;28;20489;-69
2023/01/25 07:27:28;;;;;;;23.17;14.80;;;2.80;99.90;;;;;;5075232;28;20541;-70
2023/01/25 07:29:55;;;;;;;22.77;14.43;;;2.80;99.90;;;;;;5074762;28;20961;-70
2023/01/25 07:32:22;;;;;;;21.00;14.70;;;2.90;99.90;;;;;;5061425;28;20569;-69
2023/01/25 07:34:48;;;;;;;17.93;14.10;;;2.90;99.90;;;;;;5055129;28;20546;-68
2023/01/25 07:37:17;;;;;;;24.90;16.00;;;2.90;99.90;;;;;;5055122;28;20569;-70
2023/01/25 07:39:49;;;;;;;23.27;14.30;;;2.90;99.90;;;;;;5055119;28;20454;-70
2023/01/25 07:42:16;;;;;;;22.80;13.33;;;2.90;99.90;;;;;;5055159;28;20450;-70
2023/01/25 07:44:43;;;;;;;23.50;15.53;;;2.90;99.90;;;;;;5054481;28;20483;-70
2023/01/25 07:47:09;;;;;;;22.80;14.20;;;2.90;99.90;;;;;;5054717;28;20459;-69
2023/01/25 07:49:36;;;;;;;22.53;14.17;;;3.00;99.90;;;;;;5054872;28;20569;-69
2023/01/25 07:52:03;;;;;;;21.90;15.47;;;2.90;99.90;;;;;;5054847;28;20483;-69
2023/01/25 07:54:32;;;;;;;23.43;14.87;;;2.90;99.90;;;;;;5054522;28;20546;-69
2023/01/25 07:56:58;;;;;;;23.53;15.00;;;2.90;99.90;;;;;;5054437;28;20491;-70
2023/01/25 07:59:26;;;;;;;23.20;13.90;;;2.90;99.90;;;;;;5054284;28;20889;-69
2023/01/25 08:01:53;;;;;;;25.50;15.77;;;2.90;99.90;;;;;;5054639;28;20641;-70
2023/01/25 08:04:20;;;;;;;21.93;14.23;;;2.90;99.90;;;;;;5054748;28;20532;-69
2023/01/25 08:06:46;;;;;;;26.10;16.67;;;3.00;99.90;;;;;;5054721;28;20554;-68
2023/01/25 08:09:18;;;;;;;20.60;14.50;;;3.00;99.90;;;;;;5055677;28;20840;-70
2023/01/25 08:11:48;;;;;;;21.90;14.87;;;3.00;99.90;;;;;;5054325;28;20471;-70
2023/01/25 08:14:15;;;;;;;23.30;15.03;;;2.90;99.90;;;;;;5054326;28;20466;-69
2023/01/25 08:16:42;;;;;;;23.03;16.13;;;2.90;99.90;;;;;;5054651;28;20513;-70
2023/01/25 08:19:09;;;;;;;20.57;15.93;;;2.90;99.90;;;;;;5054905;28;20455;-68
2023/01/25 08:21:36;;;;;;;20.20;13.87;;;2.90;99.90;;;;;;5054773;28;20463;-70
2023/01/25 08:24:05;;;;;;;22.70;15.10;;;2.90;99.90;;;;;;5054351;28;20831;-70
2023/01/25 08:26:32;;;;;;;29.20;17.17;;;2.90;99.90;;;;;;5054178;28;20459;-69
2023/01/25 08:29:01;;;;;;;29.90;18.80;;;2.90;99.90;;;;;;5053910;28;20459;-69
2023/01/25 08:31:30;;;;;;;27.40;18.47;;;2.90;99.90;;;;;;5054230;28;20549;-69
2023/01/25 08:33:57;;;;;;;23.80;16.10;;;2.90;99.90;;;;;;5054058;28;20455;-70
2023/01/25 08:36:24;;;;;;;26.67;16.50;;;2.80;99.90;;;;;;5072966;28;20541;-70
2023/01/25 08:38:55;;;;;;;24.70;16.13;;;2.80;99.90;;;;;;5074457;28;20464;-70
2023/01/25 08:41:22;;;;;;;19.43;14.57;;;2.80;99.90;;;;;;5074760;28;20442;-70
2023/01/25 08:43:51;;;;;;;23.20;15.27;;;2.70;99.90;;;;;;5074193;28;20488;-70
2023/01/25 08:46:20;;;;;;;25.90;15.30;;;2.60;99.90;;;;;;5074518;28;20458;-70
2023/01/25 08:48:47;;;;;;;26.03;15.77;;;2.60;99.90;;;;;;5074303;28;20469;-70
2023/01/25 08:51:16;;;;;;;25.37;16.77;;;2.60;99.90;;;;;;5074382;28;20557;-70
2023/01/25 08:53:43;;;;;;;21.63;15.07;;;2.50;99.90;;;;;;5074210;28;20573;-70
2023/01/25 08:56:12;;;;;;;23.80;15.10;;;2.50;99.90;;;;;;5074195;28;20537;-70
2023/01/25 08:58:41;;;;;;;21.60;14.63;;;2.50;99.90;;;;;;5076972;28;20460;-70
2023/01/25 09:01:10;;;;;;;22.00;14.87;;;2.40;99.90;;;;;;5078253;28;20461;-70
2023/01/25 09:03:40;;;;;;;23.73;15.20;;;2.40;99.90;;;;;;5078724;28;20461;-71
2023/01/25 09:06:08;;;;;;;27.20;17.10;;;2.30;99.90;;;;;;5078568;28;20561;-71
2023/01/25 09:08:36;;;;;;;23.23;15.07;;;2.30;99.90;;;;;;5078425;28;20891;-70
2023/01/25 09:11:05;;;;;;;25.83;15.77;;;2.30;99.90;;;;;;5078807;28;20454;-70
2023/01/25 09:13:32;;;;;;;27.03;16.40;;;2.30;99.90;;;;;;5078806;28;20757;-70
2023/01/25 09:16:00;;;;;;;27.30;17.00;;;2.30;99.90;;;;;;5078688;28;20468;-70
2023/01/25 09:18:27;;;;;;;26.97;17.50;;;2.40;99.90;;;;;;5078172;28;20464;-71
2023/01/25 09:20:56;;;;;;;26.20;17.23;;;2.50;99.90;;;;;;5077407;28;20489;-71
2023/01/25 09:23:23;;;;;;;22.87;15.80;;;2.50;99.90;;;;;;5077681;28;20460;-71
2023/01/25 09:25:55;;;;;;;22.00;14.00;;;2.50;99.90;;;;;;5077941;28;20489;-70
2023/01/25 09:28:22;;;;;;;25.37;16.37;;;2.40;99.90;;;;;;5077992;28;20452;-70
2023/01/25 09:30:54;;;;;;;28.23;15.37;;;2.30;99.90;;;;;;5077570;28;20454;-71
2023/01/25 09:33:25;;;;;;;28.17;17.10;;;2.30;99.90;;;;;;5077343;28;20476;-70
2023/01/25 09:35:52;;;;;;;28.13;17.10;;;2.30;99.90;;;;;;5077398;28;20830;-71
2023/01/25 09:38:20;;;;;;;29.33;17.43;;;2.30;99.90;;;;;;5077225;28;20779;-70
2023/01/25 09:41:01;;;;;;;27.37;16.80;;;2.40;99.90;;;;;;5077228;28;20560;-72
2023/01/25 09:43:43;;;;;;;26.77;15.53;;;2.50;99.90;;;;;;5077067;28;20482;-71
2023/01/25 09:46:20;;;;;;;24.90;16.33;;;2.60;99.90;;;;;;5077273;28;20453;-70
2023/01/25 09:48:56;;;;;;;25.47;15.30;;;2.50;99.90;;;;;;5077842;28;20438;-71
2023/01/25 09:51:29;;;;;;;24.80;13.07;;;2.50;99.90;;;;;;5078530;28;20448;-72
2023/01/25 09:53:59;;;;;;;28.63;15.87;;;2.40;99.90;;;;;;5077456;28;20573;-69
2023/01/25 09:56:29;;;;;;;26.40;15.07;;;2.40;99.90;;;;;;5077300;28;20571;-70
2023/01/25 09:58:59;;;;;;;24.97;14.00;;;2.30;99.90;;;;;;5077054;28;20974;-71
2023/01/25 10:01:34;;;;;;;27.67;14.10;;;2.40;99.90;;;;;;5077461;28;20515;-71
2023/01/25 10:04:04;;;;;;;30.37;17.70;;;2.40;99.90;;;;;;5077306;28;20445;-70
2023/01/25 10:06:37;;;;;;;25.70;16.30;;;2.40;99.90;;;;;;5078000;28;20459;-71
2023/01/25 10:09:17;;;;;;;29.17;16.10;;;2.50;99.90;;;;;;5076577;28;20910;-70
2023/01/25 10:11:44;;;;;;;24.70;14.70;;;2.60;99.90;;;;;;5077627;28;20485;-71
2023/01/25 10:14:15;;;;;;;21.33;14.17;;;2.50;99.90;;;;;;5077476;28;20482;-71
2023/01/25 10:16:55;;;;;;;25.93;15.37;;;2.50;99.90;;;;;;5077692;28;20458;-70
2023/01/25 10:19:31;;;;;;;21.57;14.10;;;2.50;99.90;;;;;;5077043;28;20461;-70
2023/01/25 10:22:05;;;;;;;24.73;15.90;;;2.40;99.90;;;;;;5076697;28;20524;-71
2023/01/25 10:24:45;;;;;;;28.77;16.20;;;2.40;99.90;;;;;;5076421;28;20533;-70
2023/01/25 10:27:23;;;;;;;23.90;14.63;;;2.40;99.90;;;;;;5076688;28;20452;-71
2023/01/25 10:29:52;;;;;;;23.63;14.80;;;2.40;99.90;;;;;;5076494;28;20442;-71
2023/01/25 10:32:23;;;;;;;25.73;15.27;;;2.50;99.90;;;;;;5076582;28;20462;-70
2023/01/25 10:34:51;;;;;;;30.97;16.30;;;2.50;99.90;;;;;;5076535;28;20447;-72
2023/01/25 10:37:22;;;;;;;26.80;15.50;;;2.50;99.90;;;;;;5077896;28;20489;-71
2023/01/25 10:39:56;;;;;;;24.07;15.57;;;2.50;99.90;;;;;;5077602;28;20533;-70
2023/01/25 10:42:27;;;;;;;31.97;18.03;;;2.40;99.90;;;;;;5077081;28;20442;-70
2023/01/25 10:44:54;;;;;;;21.47;15.23;;;2.40;99.90;;;;;;5076967;28;20442;-69
2023/01/25 10:47:24;;;;;;;25.67;15.40;;;2.40;99.90;;;;;;5077080;28;20548;-70
2023/01/25 10:49:52;;;;;;;23.30;14.37;;;2.40;99.90;;;;;;5077584;28;20454;-70
2023/01/25 10:52:21;;;;;;;23.30;15.20;;;2.40;99.90;;;;;;5076740;28;20462;-70
2023/01/25 10:55:04;;;;;;;23.57;14.40;;;2.40;99.90;;;;;;5076848;28;20511;-70
2023/01/25 10:57:31;;;;;;;22.60;14.70;;;2.40;99.90;;;;;;5076193;28;20534;-71
2023/01/25 11:00:02;;;;;;;23.27;14.80;;;2.40;99.90;;;;;;5075963;28;20616;-71
2023/01/25 11:02:40;;;;;;;30.67;16.00;;;2.40;99.90;;;;;;5076437;28;20552;-71
2023/01/25 11:05:26;;;;;;;28.53;17.20;;;2.40;99.90;;;;;;5076267;28;20449;-70
2023/01/25 11:07:53;;;;;;;27.70;16.20;;;2.40;99.90;;;;;;5076108;28;20453;-70
2023/01/25 11:10:32;;;;;;;30.17;17.33;;;2.50;99.90;;;;;;5075417;28;20541;-70
2023/01/25 11:13:27;;;;;;;33.33;17.40;;;2.50;99.90;;;;;;5076088;28;20467;-71
2023/01/25 11:16:03;;;;;;;30.77;18.27;;;2.60;99.90;;;;;;5052300;28;20789;-70
2023/01/25 11:18:33;;;;;;;27.90;16.50;;;2.60;99.90;;;;;;5075644;28;20450;-70
2023/01/25 11:21:06;;;;;;;26.30;14.53;;;2.60;99.90;;;;;;5075396;28;20840;-70
2023/01/25 11:23:33;;;;;;;25.30;16.03;;;2.50;99.90;;;;;;5075880;28;20781;-70
2023/01/25 11:26:14;;;;;;;32.00;16.53;;;2.40;99.90;;;;;;5075521;28;20537;-70
2023/01/25 11:28:41;;;;;;;28.27;16.50;;;2.40;99.90;;;;;;5076210;28;20448;-70
2023/01/25 11:31:12;;;;;;;29.03;17.63;;;2.30;99.90;;;;;;5077382;28;20537;-71
2023/01/25 11:33:40;;;;;;;31.80;18.50;;;2.30;99.90;;;;;;5075477;28;20470;-70
2023/01/25 11:36:19;;;;;;;30.17;17.63;;;2.40;99.90;;;;;;5075673;28;20458;-70
2023/01/25 11:38:57;;;;;;;37.00;18.57;;;2.40;99.90;;;;;;5075511;28;20442;-72
2023/01/25 11:41:36;;;;;;;28.50;17.20;;;2.40;99.90;;;;;;5075590;28;20469;-70
2023/01/25 11:44:25;;;;;;;28.17;18.00;;;2.40;99.90;;;;;;5075116;28;20573;-70
2023/01/25 11:47:02;;;;;;;30.27;17.90;;;2.30;99.90;;;;;;5075304;28;20554;-71
2023/01/25 11:49:39;;;;;;;31.30;18.70;;;2.30;99.90;;;;;;5075538;28;20442;-70
2023/01/25 11:52:15;;;;;;;28.50;16.77;;;2.20;99.90;;;;;;5072315;28;20533;-70
2023/01/25 11:55:00;;;;;;;27.10;16.50;;;2.20;99.90;;;;;;5074915;28;20877;-71
2023/01/25 11:57:52;;;;;;;32.33;19.20;;;2.20;99.90;;;;;;5074775;28;20442;-71
2023/01/25 12:00:34;;;;;;;35.13;18.73;;;2.30;99.90;;;;;;5075098;28;20790;-70
2023/01/25 12:03:38;;;;;;;31.27;17.80;;;2.30;99.90;;;;;;5074900;28;20510;-70
2023/01/25 12:06:13;;;;;;;35.00;19.50;;;2.30;99.90;;;;;;5071557;28;20541;-70
2023/01/25 12:09:11;;;;;;;35.00;20.10;;;2.20;99.90;;;;;;5074683;28;20784;-70
2023/01/25 12:11:54;;;;;;;34.63;21.60;;;2.20;99.90;;;;;;5074063;28;20481;-71
2023/01/25 12:14:35;;;;;;;32.30;19.70;;;2.30;99.90;;;;;;5075084;28;20553;-71
2023/01/25 12:17:18;;;;;;;36.73;18.90;;;2.30;99.90;;;;;;5074602;28;20897;-71
2023/01/25 12:20:07;;;;;;;33.20;19.10;;;2.30;99.90;;;;;;5075221;28;20913;-70
2023/01/25 12:22:45;;;;;;;32.47;19.40;;;2.30;99.90;;;;;;5074556;28;20443;-70
2023/01/25 12:25:23;;;;;;;35.40;20.07;;;2.30;99.90;;;;;;5074744;28;20442;-71
2023/01/25 12:28:07;;;;;;;32.60;19.67;;;2.40;99.90;;;;;;5074775;28;20924;-71
2023/01/25 12:30:45;;;;;;;33.40;18.37;;;2.40;99.90;;;;;;5074857;28;20517;-71
2023/01/25 12:33:17;;;;;;;32.33;20.30;;;2.40;99.90;;;;;;5077391;28;20849;-71
2023/01/25 12:35:48;;;;;;;35.80;20.37;;;2.40;99.90;;;;;;5078586;28;20442;-70
2023/01/25 12:38:23;;;;;;;38.90;21.07;;;2.40;99.90;;;;;;5079032;28;20769;-70
2023/01/25 12:40:55;;;;;;;32.07;18.77;;;2.40;99.90;;;;;;5078276;28;20448;-70
2023/01/25 12:43:27;;;;;;;39.00;20.70;;;2.40;99.90;;;;;;5078428;28;20975;-71
2023/01/25 12:45:56;;;;;;;32.73;20.03;;;2.30;99.90;;;;;;5079309;28;20525;-72
2023/01/25 12:48:30;;;;;;;34.33;20.60;;;2.30;99.90;;;;;;5078765;28;20460;-69
2023/01/25 12:50:58;;;;;;;34.17;20.20;;;2.30;99.90;;;;;;5078643;28;20456;-72
2023/01/25 12:53:27;;;;;;;37.03;19.57;;;2.20;99.90;;;;;;5078422;28;20680;-70